createdAt,value
2023-05-18T00:01:32.821Z,14.89
2023-05-18T00:04:17.582Z,14.71
2023-05-18T00:07:05.031Z,13.94
2023-05-18T00:09:50.075Z,13.46
2023-05-18T00:12:34.211Z,13.45
2023-05-18T00:15:18.289Z,13.14
2023-05-18T00:18:02.589Z,13.10
2023-05-18T00:20:46.846Z,13.08
2023-05-18T00:23:33.282Z,13.07
2023-05-18T00:26:17.292Z,12.98
2023-05-18T00:29:02.966Z,12.72
2023-05-18T00:31:47.415Z,12.74
2023-05-18T00:34:31.816Z,12.77
2023-05-18T00:37:15.897Z,12.74
2023-05-18T00:40:01.367Z,12.84
2023-05-18T00:42:48.217Z,13.03
2023-05-18T00:45:32.449Z,13.07
2023-05-18T00:48:16.694Z,13.27
2023-05-18T00:51:02.199Z,13.32
2023-05-18T00:53:46.640Z,13.34
2023-05-18T00:56:34.312Z,13.47
2023-05-18T00:59:18.714Z,13.64
2023-05-18T01:02:03.204Z,13.63
2023-05-18T01:04:47.468Z,13.49
2023-05-18T01:07:33.725Z,13.52
2023-05-18T01:10:19.928Z,13.42
2023-05-18T01:13:10.984Z,13.49
2023-05-18T01:16:03.090Z,13.61
2023-05-18T01:18:55.082Z,13.50
2023-05-18T01:21:57.668Z,13.59
2023-05-18T01:24:45.792Z,13.67
2023-05-18T01:27:37.770Z,13.54
2023-05-18T01:30:22.460Z,13.67
2023-05-18T01:33:08.700Z,13.53
2023-05-18T01:35:52.835Z,13.66
2023-05-18T01:38:41.665Z,13.54
2023-05-18T01:41:29.670Z,13.59
2023-05-18T01:44:22.153Z,13.87
2023-05-18T01:47:12.014Z,13.85
2023-05-18T01:50:01.221Z,13.90
2023-05-18T01:52:55.539Z,14.01
2023-05-18T01:55:41.900Z,14.42
2023-05-18T01:58:28.942Z,13.94
2023-05-18T02:01:16.221Z,14.61
2023-05-18T02:04:00.374Z,14.76
2023-05-18T02:06:44.769Z,14.36
2023-05-18T02:09:29.571Z,14.85
2023-05-18T02:12:13.690Z,15.03
2023-05-18T02:14:58.603Z,14.90
2023-05-18T02:17:44.123Z,15.11
2023-05-18T02:20:50.856Z,15.04
2023-05-18T02:23:35.072Z,14.87
2023-05-18T02:26:19.674Z,14.56
2023-05-18T02:29:11.987Z,14.79
2023-05-18T02:31:56.345Z,14.51
2023-05-18T02:34:46.421Z,14.76
2023-05-18T02:37:34.537Z,14.76
2023-05-18T02:40:18.634Z,14.72
2023-05-18T02:43:02.593Z,14.68
2023-05-18T02:45:47.512Z,14.86
2023-05-18T02:48:32.268Z,14.67
2023-05-18T02:51:17.586Z,14.83
2023-05-18T02:54:02.074Z,14.54
2023-05-18T02:56:49.073Z,14.80
2023-05-18T02:59:47.433Z,14.69
2023-05-18T03:02:31.591Z,14.96
2023-05-18T03:05:16.770Z,14.80
2023-05-18T03:08:02.606Z,14.65
2023-05-18T03:10:48.241Z,14.61
2023-05-18T03:13:32.152Z,14.61
2023-05-18T03:16:17.219Z,14.55
2023-05-18T03:19:02.899Z,14.58
2023-05-18T03:21:53.683Z,14.62
2023-05-18T03:24:41.473Z,14.61
2023-05-18T03:27:29.763Z,14.72
2023-05-18T03:30:14.163Z,14.66
2023-05-18T03:32:58.054Z,14.82
2023-05-18T03:35:42.371Z,14.99
2023-05-18T03:38:26.657Z,14.77
2023-05-18T03:41:18.480Z,14.61
2023-05-18T03:44:02.493Z,14.98
2023-05-18T03:46:47.518Z,14.97
2023-05-18T03:49:31.730Z,14.96
2023-05-18T03:52:22.256Z,14.95
2023-05-18T03:55:07.230Z,15.23
2023-05-18T03:57:53.899Z,15.41
2023-05-18T04:00:39.217Z,15.01
2023-05-18T04:03:25.251Z,15.21
2023-05-18T04:06:10.456Z,15.20
2023-05-18T04:08:55.053Z,15.05
2023-05-18T04:11:38.984Z,14.99
2023-05-18T04:14:24.820Z,15.14
2023-05-18T04:17:10.275Z,15.01
2023-05-18T04:19:54.280Z,15.13
2023-05-18T04:22:43.381Z,15.26
2023-05-18T04:25:28.563Z,15.29
2023-05-18T04:28:12.773Z,15.31
2023-05-18T04:30:59.149Z,15.60
2023-05-18T04:33:47.435Z,15.56
2023-05-18T04:36:31.793Z,15.65
2023-05-18T04:39:15.613Z,15.91
2023-05-18T04:42:00.328Z,15.65
2023-05-18T04:44:45.774Z,15.79
2023-05-18T04:47:32.998Z,15.86
2023-05-18T04:50:18.523Z,16.04
2023-05-18T04:53:03.586Z,16.14
2023-05-18T04:55:49.058Z,15.95
2023-05-18T04:58:35.710Z,16.16
2023-05-18T05:01:20.013Z,15.90
2023-05-18T05:04:07.137Z,16.12
2023-05-18T05:06:51.029Z,16.29
2023-05-18T05:09:34.960Z,16.35
2023-05-18T05:12:19.231Z,16.60
2023-05-18T05:15:03.236Z,16.47
2023-05-18T05:17:50.666Z,16.42
2023-05-18T05:20:36.496Z,16.25
2023-05-18T05:23:20.449Z,16.30
2023-05-18T05:26:05.115Z,16.81
2023-05-18T05:28:49.464Z,16.83
2023-05-18T05:31:34.744Z,16.44
2023-05-18T05:34:18.909Z,16.25
2023-05-18T05:37:04.648Z,15.97
2023-05-18T05:39:48.752Z,16.04
2023-05-18T05:42:35.058Z,15.79
2023-05-18T05:45:20.177Z,15.72
2023-05-18T05:48:13.517Z,15.68
2023-05-18T05:50:58.273Z,15.81
2023-05-18T05:53:46.273Z,15.62
2023-05-18T05:56:32.397Z,15.81
2023-05-18T05:59:16.794Z,15.82
2023-05-18T06:02:00.884Z,15.83
2023-05-18T06:04:45.001Z,15.71
2023-05-18T06:07:30.246Z,16.00
2023-05-18T06:10:15.683Z,15.80
2023-05-18T06:12:59.934Z,15.97
2023-05-18T06:15:52.039Z,15.93
2023-05-18T06:18:36.751Z,15.77
2023-05-18T06:21:22.787Z,15.97
2023-05-18T06:24:08.056Z,15.96
2023-05-18T06:27:19.654Z,16.16
2023-05-18T06:30:12.209Z,16.23
2023-05-18T06:33:15.038Z,16.28
2023-05-18T06:35:59.068Z,16.25
2023-05-18T06:38:43.003Z,16.52
2023-05-18T06:41:26.932Z,16.50
2023-05-18T06:44:12.662Z,16.49
2023-05-18T06:47:16.204Z,16.56
2023-05-18T06:50:00.157Z,16.73
2023-05-18T06:52:46.227Z,16.89
2023-05-18T06:55:30.292Z,16.76
2023-05-18T06:58:14.637Z,16.99
2023-05-18T07:01:01.344Z,16.99
2023-05-18T07:03:45.877Z,17.21
2023-05-18T07:06:30.088Z,17.11
2023-05-18T07:09:13.999Z,17.20
2023-05-18T07:11:57.944Z,17.17
2023-05-18T07:14:41.868Z,17.09
2023-05-18T07:17:27.220Z,17.07
2023-05-18T07:20:11.970Z,17.16
2023-05-18T07:22:56.304Z,17.09
2023-05-18T07:25:40.315Z,16.96
2023-05-18T07:28:24.621Z,17.07
2023-05-18T07:31:08.545Z,16.82
2023-05-18T07:33:53.972Z,17.04
2023-05-18T07:36:37.906Z,17.16
2023-05-18T07:39:28.557Z,16.82
2023-05-18T07:42:12.677Z,16.80
2023-05-18T07:44:56.528Z,16.33
2023-05-18T07:47:40.946Z,16.44
2023-05-18T07:50:26.618Z,16.48
2023-05-18T07:53:10.486Z,16.77
2023-05-18T07:55:54.495Z,16.41
2023-05-18T07:58:38.517Z,16.12
2023-05-18T08:01:27.398Z,16.57
2023-05-18T08:04:11.456Z,16.87
2023-05-18T08:07:00.568Z,16.64
2023-05-18T08:09:44.932Z,16.72
2023-05-18T08:12:30.051Z,16.98
2023-05-18T08:15:14.112Z,17.15
2023-05-18T08:17:58.058Z,17.31
2023-05-18T08:20:42.008Z,17.46
2023-05-18T08:23:27.351Z,17.16
2023-05-18T08:26:13.950Z,17.33
2023-05-18T08:28:58.135Z,17.17
2023-05-18T08:31:42.601Z,17.28
2023-05-18T08:34:26.632Z,17.26
2023-05-18T08:37:10.516Z,17.57
2023-05-18T08:39:55.905Z,17.75
2023-05-18T08:42:50.514Z,17.78
2023-05-18T08:45:41.184Z,17.56
2023-05-18T08:48:28.438Z,17.63
2023-05-18T08:51:14.372Z,17.79
2023-05-18T08:53:59.942Z,18.16
2023-05-18T08:56:46.359Z,18.49
2023-05-18T08:59:33.031Z,18.84
2023-05-18T09:02:17.620Z,19.14
2023-05-18T09:05:02.733Z,18.82
2023-05-18T09:07:50.445Z,19.21
2023-05-18T09:10:35.149Z,19.17
2023-05-18T09:13:21.328Z,19.18
2023-05-18T09:16:05.569Z,19.73
2023-05-18T09:18:49.595Z,19.60
2023-05-18T09:21:33.952Z,19.40
2023-05-18T09:24:19.478Z,19.05
2023-05-18T09:27:03.747Z,19.26
2023-05-18T09:29:56.628Z,19.11
2023-05-18T09:32:40.869Z,19.84
2023-05-18T09:35:26.660Z,20.05
2023-05-18T09:38:11.090Z,20.33
2023-05-18T09:40:55.172Z,20.59
2023-05-18T09:43:39.364Z,20.43
2023-05-18T09:46:24.638Z,20.43
2023-05-18T09:49:09.961Z,20.62
2023-05-18T09:51:54.262Z,20.42
2023-05-18T09:54:39.211Z,20.64
2023-05-18T09:57:23.178Z,20.31
2023-05-18T10:00:11.128Z,20.62
2023-05-18T10:02:56.736Z,20.97
2023-05-18T10:05:43.837Z,21.07
2023-05-18T10:08:27.860Z,20.97
2023-05-18T10:11:12.658Z,20.18
2023-05-18T10:13:57.113Z,20.56
2023-05-18T10:16:42.793Z,20.37
2023-05-18T10:19:29.478Z,20.38
2023-05-18T10:22:17.568Z,19.69
2023-05-18T10:25:04.697Z,19.57
2023-05-18T10:27:50.535Z,19.47
2023-05-18T10:30:35.785Z,19.38
2023-05-18T10:33:28.609Z,19.58
2023-05-18T10:36:16.557Z,19.90
2023-05-18T10:39:02.036Z,19.89
2023-05-18T10:41:48.317Z,20.01
2023-05-18T10:44:33.127Z,20.65
2023-05-18T10:47:17.300Z,21.18
2023-05-18T10:50:02.936Z,21.38
2023-05-18T10:52:50.028Z,21.65
2023-05-18T10:55:34.518Z,21.41
2023-05-18T10:58:20.027Z,20.98
2023-05-18T11:01:08.497Z,20.95
2023-05-18T11:03:52.366Z,21.17
2023-05-18T11:06:36.560Z,21.45
2023-05-18T11:09:26.312Z,21.99
2023-05-18T11:12:14.236Z,21.66
2023-05-18T11:14:58.558Z,20.99
2023-05-18T11:17:42.301Z,20.55
2023-05-18T11:20:27.339Z,20.59
2023-05-18T11:23:11.069Z,20.68
2023-05-18T11:25:56.146Z,21.15
2023-05-18T11:28:45.124Z,21.25
2023-05-18T11:31:47.178Z,21.05
2023-05-18T11:34:52.674Z,21.05
2023-05-18T11:37:50.064Z,21.86
2023-05-18T11:40:47.929Z,20.94
2023-05-18T11:43:34.011Z,20.34
2023-05-18T11:46:22.446Z,21.54
2023-05-18T11:49:08.446Z,21.55
2023-05-18T11:52:04.781Z,22.21
2023-05-18T11:54:52.407Z,22.96
2023-05-18T11:57:40.949Z,21.70
2023-05-18T12:00:26.690Z,21.31
2023-05-18T12:03:10.994Z,22.19
2023-05-18T12:05:55.421Z,20.90
2023-05-18T12:08:44.048Z,21.32
2023-05-18T12:11:27.795Z,22.39
2023-05-18T12:14:12.677Z,22.28
2023-05-18T12:16:59.947Z,22.99
2023-05-18T12:19:45.266Z,22.65
2023-05-18T12:22:28.991Z,21.61
2023-05-18T12:25:13.234Z,22.49
2023-05-18T12:27:57.905Z,22.80
2023-05-18T12:30:44.090Z,22.74
2023-05-18T12:33:29.293Z,22.59
2023-05-18T12:36:14.120Z,23.05
2023-05-18T12:38:57.817Z,22.88
2023-05-18T12:41:41.479Z,22.48
2023-05-18T12:44:25.157Z,22.41
2023-05-18T12:47:09.053Z,22.56
2023-05-18T12:49:54.196Z,22.94
2023-05-18T12:52:38.642Z,23.35
2023-05-18T12:55:23.211Z,23.77
2023-05-18T12:58:09.836Z,22.28
2023-05-18T13:00:53.592Z,22.64
2023-05-18T13:03:40.567Z,23.03
2023-05-18T13:06:26.557Z,23.41
2023-05-18T13:09:12.946Z,23.53
2023-05-18T13:14:48.893Z,23.92
2023-05-18T13:17:32.784Z,23.45
2023-05-18T13:20:16.860Z,23.47
2023-05-18T13:23:04.492Z,23.81
2023-05-18T13:25:48.782Z,23.41
2023-05-18T13:28:32.567Z,22.49
2023-05-18T13:31:16.428Z,22.72
2023-05-18T13:34:00.151Z,23.16
2023-05-18T13:36:43.857Z,22.89
2023-05-18T13:39:29.147Z,23.14
2023-05-18T13:42:13.456Z,23.46
2023-05-18T13:44:57.180Z,23.25
2023-05-18T13:47:41.571Z,23.29
2023-05-18T13:50:26.320Z,23.95
2023-05-18T13:53:10.059Z,24.12
2023-05-18T13:55:55.358Z,24.90
2023-05-18T13:58:39.038Z,25.36
2023-05-18T14:01:23.437Z,25.31
2023-05-18T14:04:07.217Z,24.64
2023-05-18T14:06:54.349Z,24.64
2023-05-18T14:09:38.356Z,23.79
2023-05-18T14:12:23.499Z,23.22
2023-05-18T14:15:08.200Z,23.85
2023-05-18T14:17:51.985Z,24.16
2023-05-18T14:20:37.947Z,24.69
2023-05-18T14:23:21.692Z,24.72
2023-05-18T14:26:05.549Z,25.07
2023-05-18T14:28:50.641Z,24.00
2023-05-18T14:31:35.420Z,22.72
2023-05-18T14:34:19.331Z,21.71
2023-05-18T14:37:03.255Z,22.38
2023-05-18T14:39:47.156Z,21.60
2023-05-18T14:42:31.046Z,20.99
2023-05-18T14:45:17.548Z,20.73
2023-05-18T14:48:01.329Z,21.21
2023-05-18T14:50:45.157Z,21.04
2023-05-18T14:53:28.885Z,20.69
2023-05-18T14:56:13.243Z,20.51
2023-05-18T14:58:56.977Z,20.72
2023-05-18T15:01:42.294Z,20.71
2023-05-18T15:04:26.336Z,20.92
2023-05-18T15:07:10.217Z,21.01
2023-05-18T15:09:55.356Z,20.60
2023-05-18T15:12:39.115Z,20.58
2023-05-18T15:15:24.171Z,20.01
2023-05-18T15:18:11.988Z,20.06
2023-05-18T15:20:56.113Z,20.29
2023-05-18T15:23:39.925Z,20.38
2023-05-18T15:26:23.714Z,20.32
2023-05-18T15:29:07.440Z,19.95
2023-05-18T15:31:52.782Z,19.95
2023-05-18T15:34:37.927Z,19.99
2023-05-18T15:37:21.763Z,19.68
2023-05-18T15:40:06.112Z,19.93
2023-05-18T15:42:49.985Z,19.91
2023-05-18T15:45:33.850Z,20.16
2023-05-18T15:48:17.537Z,20.12
2023-05-18T15:51:02.725Z,19.96
2023-05-18T15:53:46.565Z,20.10
2023-05-18T15:56:30.561Z,19.89
2023-05-18T15:59:14.230Z,19.84
2023-05-18T16:01:57.966Z,19.95
2023-05-18T16:04:41.684Z,19.96
2023-05-18T16:07:26.783Z,19.87
2023-05-18T16:10:10.692Z,19.60
2023-05-18T16:12:54.359Z,19.79
2023-05-18T16:15:38.337Z,19.62
2023-05-18T16:18:22.160Z,19.64
2023-05-18T16:21:06.441Z,19.50
2023-05-18T16:23:51.713Z,19.46
2023-05-18T16:26:37.270Z,19.27
2023-05-18T16:29:22.273Z,19.37
2023-05-18T16:32:06.908Z,19.25
2023-05-18T16:34:50.954Z,19.37
2023-05-18T16:37:34.816Z,19.25
2023-05-18T16:40:20.258Z,19.00
2023-05-18T16:43:04.306Z,18.93
2023-05-18T16:45:48.293Z,18.97
2023-05-18T16:48:31.977Z,19.15
2023-05-18T16:51:15.798Z,19.04
2023-05-18T16:53:59.502Z,19.06
2023-05-18T16:56:44.643Z,18.89
2023-05-18T16:59:28.399Z,19.18
2023-05-18T17:02:14.103Z,19.00
2023-05-18T17:04:59.286Z,19.04
2023-05-18T17:07:43.022Z,19.14
2023-05-18T17:10:26.829Z,18.97
2023-05-18T17:13:11.915Z,19.03
2023-05-18T17:15:55.727Z,19.38
2023-05-18T17:18:39.497Z,19.01
2023-05-18T17:21:23.949Z,18.86
2023-05-18T17:24:08.262Z,18.97
2023-05-18T17:26:52.105Z,19.13
2023-05-18T17:29:37.312Z,18.65
2023-05-18T17:32:21.105Z,18.73
2023-05-18T17:35:05.648Z,18.91
2023-05-18T17:37:49.458Z,18.87
2023-05-18T17:40:33.786Z,18.90
2023-05-18T17:43:17.695Z,18.96
2023-05-18T17:46:03.193Z,18.99
2023-05-18T17:48:47.699Z,19.09
2023-05-18T17:51:31.671Z,19.01
2023-05-18T17:54:15.861Z,19.11
2023-05-18T17:56:59.601Z,18.95
2023-05-18T17:59:43.368Z,17.91
2023-05-18T18:02:28.977Z,18.75
2023-05-18T18:05:13.107Z,18.29
2023-05-18T18:07:57.587Z,18.19
2023-05-18T18:10:41.551Z,18.21
2023-05-18T18:13:26.020Z,18.16
2023-05-18T18:16:10.029Z,18.04
2023-05-18T18:18:57.085Z,17.87
2023-05-18T18:21:41.049Z,17.76
2023-05-18T18:24:25.160Z,17.57
2023-05-18T18:27:09.271Z,17.52
2023-05-18T18:29:53.382Z,17.52
2023-05-18T18:32:37.362Z,16.86
2023-05-18T18:35:22.833Z,17.47
2023-05-18T18:38:06.803Z,17.65
2023-05-18T18:40:51.355Z,17.29
2023-05-18T18:43:38.852Z,17.47
2023-05-18T18:46:22.989Z,17.62
2023-05-18T18:49:06.987Z,17.66
2023-05-18T18:51:53.291Z,17.49
2023-05-18T18:54:37.661Z,17.40
2023-05-18T18:57:21.983Z,17.14
2023-05-18T19:00:11.136Z,17.13
2023-05-18T19:02:55.338Z,17.11
2023-05-18T19:05:40.364Z,17.12
2023-05-18T19:08:25.729Z,17.30
2023-05-18T19:11:10.007Z,17.21
2023-05-18T19:13:53.870Z,17.18
2023-05-18T19:16:47.001Z,17.06
2023-05-18T19:19:32.746Z,17.06
2023-05-18T19:22:16.940Z,16.87
2023-05-18T19:25:02.400Z,17.24
2023-05-18T19:27:48.907Z,17.09
2023-05-18T19:30:32.814Z,17.07
2023-05-18T19:33:16.884Z,17.36
2023-05-18T19:36:01.402Z,17.14
2023-05-18T19:38:46.795Z,16.92
2023-05-18T19:41:32.487Z,17.20
2023-05-18T19:44:16.778Z,16.98
2023-05-18T19:47:01.074Z,17.00
2023-05-18T19:49:45.290Z,16.77
2023-05-18T19:52:29.368Z,16.74
2023-05-18T19:55:13.914Z,16.81
2023-05-18T19:57:59.400Z,16.63
2023-05-18T20:00:43.478Z,16.64
2023-05-18T20:03:27.778Z,16.65
2023-05-18T20:06:12.277Z,16.58
2023-05-18T20:08:56.200Z,16.52
2023-05-18T20:11:40.189Z,16.52
2023-05-18T20:14:27.013Z,16.57
2023-05-18T20:17:11.050Z,16.41
2023-05-18T20:19:54.857Z,16.38
2023-05-18T20:22:39.802Z,16.38
2023-05-18T20:25:25.008Z,16.51
2023-05-18T20:28:09.293Z,16.47
2023-05-18T20:30:55.175Z,16.62
2023-05-18T20:33:39.550Z,16.66
2023-05-18T20:36:23.461Z,16.65
2023-05-18T20:39:07.420Z,16.66
2023-05-18T20:41:51.348Z,16.66
2023-05-18T20:44:35.433Z,16.54
2023-05-18T20:47:21.234Z,16.54
2023-05-18T20:50:06.006Z,16.62
2023-05-18T20:52:50.703Z,16.75
2023-05-18T20:55:34.572Z,16.69
2023-05-18T20:58:19.248Z,16.72
2023-05-18T21:01:07.044Z,16.72
2023-05-18T21:03:53.048Z,16.63
2023-05-18T21:06:40.623Z,16.58
2023-05-18T21:09:24.749Z,16.59
2023-05-18T21:12:09.037Z,16.53
2023-05-18T21:14:52.972Z,16.45
2023-05-18T21:17:36.918Z,16.53
2023-05-18T21:20:22.215Z,16.64
2023-05-18T21:23:06.229Z,16.44
2023-05-18T21:25:50.162Z,16.58
2023-05-18T21:28:34.107Z,16.29
2023-05-18T21:31:18.127Z,16.21
2023-05-18T21:34:02.007Z,16.28
2023-05-18T21:36:47.391Z,16.20
2023-05-18T21:39:31.555Z,16.02
2023-05-18T21:42:15.542Z,15.99
2023-05-18T21:44:59.352Z,16.06
2023-05-18T21:47:43.397Z,16.09
2023-05-18T21:50:27.924Z,16.04
2023-05-18T21:53:13.088Z,15.96
2023-05-18T21:55:57.065Z,15.75
2023-05-18T21:58:40.901Z,15.68
2023-05-18T22:01:24.861Z,15.65
2023-05-18T22:04:08.827Z,15.50
2023-05-18T22:06:54.484Z,15.55
2023-05-18T22:09:39.725Z,15.51
2023-05-18T22:12:23.673Z,15.42
2023-05-18T22:15:10.482Z,15.40
2023-05-18T22:17:55.815Z,15.37
2023-05-18T22:20:39.746Z,15.41
2023-05-18T22:23:26.777Z,15.42
2023-05-18T22:26:12.236Z,15.14
2023-05-18T22:28:56.189Z,15.12
2023-05-18T22:31:40.107Z,15.07
2023-05-18T22:34:23.925Z,15.21
2023-05-18T22:37:07.793Z,15.30
2023-05-18T22:39:52.900Z,15.27
2023-05-18T22:42:38.262Z,15.21
2023-05-18T22:45:22.878Z,15.08
2023-05-18T22:48:07.070Z,14.72
2023-05-18T22:50:51.404Z,14.80
2023-05-18T22:53:35.538Z,14.67
2023-05-18T22:56:21.133Z,14.91
2023-05-18T22:59:07.346Z,14.75
2023-05-18T23:01:54.685Z,14.94
2023-05-18T23:04:38.778Z,14.96
2023-05-18T23:07:24.762Z,14.91
2023-05-18T23:10:11.343Z,14.55
2023-05-18T23:12:55.875Z,14.69
2023-05-18T23:15:41.637Z,14.68
2023-05-18T23:18:31.199Z,14.55
2023-05-18T23:21:15.266Z,14.55
2023-05-18T23:23:59.907Z,14.84
2023-05-18T23:26:44.863Z,14.73
2023-05-18T23:29:29.062Z,14.50
2023-05-18T23:32:14.636Z,14.69
2023-05-18T23:34:59.682Z,14.54
2023-05-18T23:37:43.895Z,14.66
2023-05-18T23:40:28.426Z,14.78
2023-05-18T23:43:12.837Z,14.71
2023-05-18T23:45:59.797Z,14.87
2023-05-18T23:48:46.072Z,15.02
2023-05-18T23:51:33.655Z,14.88
2023-05-18T23:54:18.206Z,14.86
2023-05-18T23:57:03.378Z,15.04
2023-05-18T23:59:48.768Z,14.79
